createdAt,value
2018-12-24T00:02:08.183Z,17.90
2018-12-24T00:05:04.491Z,17.90
2018-12-24T00:08:01.143Z,17.90
2018-12-24T00:10:57.361Z,17.90
2018-12-24T00:13:53.480Z,17.80
2018-12-24T00:16:49.940Z,17.80
2018-12-24T00:19:46.685Z,17.80
2018-12-24T00:22:46.096Z,17.80
2018-12-24T00:25:42.207Z,17.80
2018-12-24T00:28:41.614Z,17.70
2018-12-24T00:31:38.056Z,17.70
2018-12-24T00:34:34.503Z,17.70
2018-12-24T00:37:30.936Z,17.70
2018-12-24T00:40:28.398Z,17.70
2018-12-24T00:43:24.729Z,17.60
2018-12-24T00:46:20.769Z,17.60
2018-12-24T00:49:16.967Z,17.60
2018-12-24T00:52:13.722Z,17.60
2018-12-24T00:55:09.954Z,17.60
2018-12-24T00:58:05.972Z,17.60
2018-12-24T01:01:02.736Z,17.60
2018-12-24T01:03:59.771Z,17.60
2018-12-24T01:06:55.508Z,17.60
2018-12-24T01:09:51.023Z,17.60
2018-12-24T01:12:47.343Z,17.70
2018-12-24T01:15:43.897Z,17.60
2018-12-24T01:18:41.609Z,17.60
2018-12-24T01:21:56.226Z,17.60
2018-12-24T01:25:01.654Z,17.60
2018-12-24T01:27:48.383Z,17.60
2018-12-24T01:30:44.102Z,17.60
2018-12-24T01:33:40.142Z,17.50
2018-12-24T01:36:36.462Z,17.50
2018-12-24T01:39:32.585Z,17.50
2018-12-24T01:42:33.546Z,17.50
2018-12-24T01:45:30.684Z,17.50
2018-12-24T01:48:27.937Z,17.50
2018-12-24T01:51:24.573Z,17.50
2018-12-24T01:54:20.139Z,17.40
2018-12-24T01:57:21.197Z,17.50
2018-12-24T02:00:17.548Z,17.40
2018-12-24T02:03:15.579Z,17.50
2018-12-24T02:06:11.438Z,17.50
2018-12-24T02:09:08.913Z,17.50
2018-12-24T02:12:06.315Z,17.50
2018-12-24T02:15:05.469Z,17.50
2018-12-24T02:18:01.187Z,17.50
2018-12-24T02:20:57.625Z,17.50
2018-12-24T02:23:53.749Z,17.50
2018-12-24T02:26:49.990Z,17.50
2018-12-24T02:29:52.164Z,17.50
2018-12-24T02:32:54.145Z,17.60
2018-12-24T02:35:50.254Z,17.60
2018-12-24T02:38:53.129Z,17.60
2018-12-24T02:41:52.252Z,17.60
2018-12-24T02:44:45.303Z,17.70
2018-12-24T02:47:43.361Z,17.70
2018-12-24T02:50:57.326Z,17.80
2018-12-24T02:53:53.690Z,17.80
2018-12-24T02:56:50.094Z,17.90
2018-12-24T02:59:45.920Z,17.90
2018-12-24T03:02:42.186Z,17.90
2018-12-24T03:05:38.157Z,18.00
2018-12-24T03:08:34.288Z,18.00
2018-12-24T03:11:30.563Z,18.00
2018-12-24T03:14:27.822Z,18.00
2018-12-24T03:17:24.044Z,18.00
2018-12-24T03:20:20.522Z,18.10
2018-12-24T03:23:16.360Z,18.10
2018-12-24T03:26:13.137Z,18.10
2018-12-24T03:29:09.865Z,18.10
2018-12-24T03:32:06.042Z,18.20
2018-12-24T03:35:02.418Z,18.20
2018-12-24T03:37:59.646Z,18.30
2018-12-24T03:40:55.901Z,18.30
2018-12-24T03:43:51.628Z,18.30
2018-12-24T03:46:47.599Z,18.40
2018-12-24T03:49:44.352Z,18.40
2018-12-24T03:52:42.871Z,18.40
2018-12-24T03:55:40.063Z,18.40
2018-12-24T03:58:37.292Z,18.50
2018-12-24T04:01:52.361Z,18.50
2018-12-24T04:04:48.826Z,18.60
2018-12-24T04:07:45.459Z,18.60
2018-12-24T04:10:41.479Z,18.60
2018-12-24T04:13:37.809Z,18.70
2018-12-24T04:16:34.321Z,18.70
2018-12-24T04:19:30.398Z,18.80
2018-12-24T04:22:26.730Z,18.90
2018-12-24T04:25:22.671Z,19.00
2018-12-24T04:28:23.868Z,19.00
2018-12-24T04:31:19.686Z,19.10
2018-12-24T04:34:15.904Z,19.20
2018-12-24T04:37:12.735Z,19.20
2018-12-24T04:40:09.270Z,19.30
2018-12-24T04:43:05.613Z,19.40
2018-12-24T04:46:01.656Z,19.40
2018-12-24T04:48:57.985Z,19.50
2018-12-24T04:51:54.622Z,19.50
2018-12-24T04:54:50.713Z,19.50
2018-12-24T04:57:47.016Z,19.60
2018-12-24T05:00:46.570Z,19.60
2018-12-24T05:07:15.144Z,19.80
2018-12-24T05:10:11.449Z,19.80
2018-12-24T05:13:09.871Z,19.90
2018-12-24T05:16:14.779Z,20.00
2018-12-24T05:19:07.900Z,20.00
2018-12-24T05:22:03.675Z,20.10
2018-12-24T05:24:59.218Z,20.10
2018-12-24T05:27:55.382Z,20.20
2018-12-24T05:30:52.890Z,20.30
2018-12-24T05:33:48.914Z,20.30
2018-12-24T05:36:45.621Z,20.40
2018-12-24T05:39:41.670Z,20.50
2018-12-24T05:42:40.968Z,20.50
2018-12-24T05:45:37.320Z,20.60
2018-12-24T05:48:33.619Z,20.70
2018-12-24T05:51:30.078Z,20.70
2018-12-24T05:54:26.970Z,20.80
2018-12-24T05:57:27.096Z,20.90
2018-12-24T06:00:32.658Z,20.90
2018-12-24T06:03:41.197Z,21.00
2018-12-24T06:06:37.130Z,21.10
2018-12-24T06:09:42.468Z,21.20
2018-12-24T06:12:53.542Z,21.20
2018-12-24T06:15:49.205Z,21.30
2018-12-24T06:18:46.429Z,21.40
2018-12-24T06:21:43.554Z,21.40
2018-12-24T06:24:55.800Z,21.50
2018-12-24T06:27:54.639Z,21.60
2018-12-24T06:30:55.264Z,21.70
2018-12-24T06:33:58.011Z,21.70
2018-12-24T06:36:54.064Z,21.80
2018-12-24T06:43:15.037Z,21.80
2018-12-24T06:46:12.853Z,22.00
2018-12-24T06:49:10.025Z,22.00
2018-12-24T06:52:12.727Z,22.00
2018-12-24T06:58:58.812Z,22.20
2018-12-24T07:02:27.897Z,22.30
2018-12-24T07:05:28.901Z,22.40
2018-12-24T07:08:29.322Z,22.50
2018-12-24T07:11:30.218Z,22.60
2018-12-24T07:14:30.977Z,22.70
2018-12-24T07:17:27.584Z,22.80
2018-12-24T07:20:25.226Z,22.90
2018-12-24T07:23:21.817Z,23.00
2018-12-24T07:26:23.042Z,23.20
2018-12-24T07:29:19.276Z,23.40
2018-12-24T07:32:15.749Z,23.50
2018-12-24T07:35:11.855Z,23.70
2018-12-24T07:38:08.511Z,23.80
2018-12-24T07:41:04.626Z,23.80
2018-12-24T07:44:02.926Z,23.80
2018-12-24T07:46:59.537Z,23.90
2018-12-24T07:49:57.241Z,23.90
2018-12-24T07:52:54.219Z,23.90
2018-12-24T07:55:52.542Z,23.90
2018-12-24T07:58:48.829Z,23.90
2018-12-24T08:01:44.799Z,23.90
2018-12-24T08:04:40.712Z,24.00
2018-12-24T08:07:46.510Z,24.00
2018-12-24T08:11:04.514Z,24.10
2018-12-24T08:14:09.245Z,24.10
2018-12-24T08:17:32.782Z,24.20
2018-12-24T08:20:32.376Z,24.20
2018-12-24T08:23:29.562Z,24.30
2018-12-24T08:26:31.972Z,24.30
2018-12-24T08:29:31.200Z,24.30
2018-12-24T08:32:35.027Z,24.40
2018-12-24T08:35:33.181Z,24.40
2018-12-24T08:38:29.447Z,24.30
2018-12-24T08:41:28.524Z,24.30
2018-12-24T08:44:53.165Z,24.30
2018-12-24T08:51:38.912Z,24.30
2018-12-24T08:54:35.546Z,24.30
2018-12-24T08:57:31.771Z,24.30
2018-12-24T09:00:27.592Z,24.30
2018-12-24T09:03:24.757Z,24.30
2018-12-24T09:06:20.727Z,24.30
2018-12-24T09:09:18.911Z,24.30
2018-12-24T09:12:35.207Z,24.30
2018-12-24T09:15:31.385Z,24.40
2018-12-24T09:18:27.658Z,24.40
2018-12-24T09:21:26.619Z,24.50
2018-12-24T09:24:25.874Z,24.50
2018-12-24T09:27:25.650Z,24.60
2018-12-24T09:30:52.194Z,24.60
2018-12-24T09:36:11.032Z,24.70
2018-12-24T09:38:29.238Z,24.70
2018-12-24T09:46:42.316Z,24.80
2018-12-24T09:49:05.798Z,24.80
2018-12-24T09:52:12.008Z,24.90
2018-12-24T09:55:39.606Z,24.90
2018-12-24T09:59:05.867Z,24.90
2018-12-24T10:02:10.615Z,24.90
2018-12-24T10:05:06.062Z,24.80
2018-12-24T10:08:02.959Z,24.80
2018-12-24T10:14:15.230Z,24.70
2018-12-24T10:17:14.181Z,24.70
2018-12-24T10:20:11.535Z,24.60
2018-12-24T10:23:11.879Z,24.60
2018-12-24T10:26:14.770Z,24.60
2018-12-24T10:29:11.082Z,24.60
2018-12-24T10:32:07.710Z,24.60
2018-12-24T10:35:03.564Z,24.50
2018-12-24T10:38:04.880Z,24.50
2018-12-24T10:41:20.310Z,24.50
2018-12-24T10:44:18.585Z,24.50
2018-12-24T10:47:20.458Z,24.40
2018-12-24T10:50:17.661Z,24.40
2018-12-24T10:57:16.826Z,24.40
2018-12-24T11:00:20.425Z,24.40
2018-12-24T11:03:20.750Z,24.40
2018-12-24T11:06:36.038Z,24.40
2018-12-24T11:09:35.156Z,24.40
2018-12-24T11:12:51.549Z,24.40
2018-12-24T11:16:00.983Z,24.30
2018-12-24T11:18:59.870Z,24.30
2018-12-24T11:22:26.082Z,24.20
2018-12-24T11:25:25.003Z,24.10
2018-12-24T11:28:25.124Z,24.10
2018-12-24T11:31:33.477Z,24.00
2018-12-24T11:34:31.966Z,23.90
2018-12-24T11:37:29.572Z,23.90
2018-12-24T11:40:35.899Z,23.80
2018-12-24T11:43:39.227Z,23.80
2018-12-24T11:46:37.595Z,23.70
2018-12-24T11:49:45.614Z,23.60
2018-12-24T11:53:01.114Z,23.50
2018-12-24T11:56:14.106Z,23.50
2018-12-24T11:59:26.557Z,23.40
2018-12-24T12:02:27.295Z,23.30
2018-12-24T12:05:40.636Z,23.20
2018-12-24T12:08:38.724Z,23.20
2018-12-24T12:11:37.022Z,23.10
2018-12-24T12:14:42.513Z,23.00
2018-12-24T12:17:49.237Z,23.00
2018-12-24T12:21:01.426Z,22.90
2018-12-24T12:24:20.780Z,22.90
2018-12-24T12:27:20.346Z,22.80
2018-12-24T12:30:17.040Z,22.80
2018-12-24T12:33:14.418Z,22.70
2018-12-24T12:36:11.964Z,22.70
2018-12-24T12:39:29.398Z,22.70
2018-12-24T12:42:33.035Z,22.60
2018-12-24T12:45:54.456Z,22.60
2018-12-24T12:48:52.744Z,22.60
2018-12-24T12:51:52.919Z,22.50
2018-12-24T12:54:49.665Z,22.50
2018-12-24T12:57:45.852Z,22.40
2018-12-24T13:00:42.137Z,22.40
2018-12-24T13:03:38.751Z,22.40
2018-12-24T13:06:48.651Z,22.30
2018-12-24T13:09:48.360Z,22.30
2018-12-24T13:13:00.855Z,22.30
2018-12-24T13:16:11.240Z,22.20
2018-12-24T13:19:08.711Z,22.20
2018-12-24T13:22:07.886Z,22.10
2018-12-24T13:25:04.392Z,22.10
2018-12-24T13:28:00.655Z,22.10
2018-12-24T13:30:57.079Z,22.00
2018-12-24T13:33:53.416Z,22.00
2018-12-24T13:36:50.453Z,22.00
2018-12-24T13:39:46.496Z,21.90
2018-12-24T13:42:52.334Z,21.90
2018-12-24T13:45:48.581Z,21.90
2018-12-24T13:48:45.633Z,21.90
2018-12-24T13:51:42.405Z,21.80
2018-12-24T13:54:39.128Z,21.80
2018-12-24T13:57:35.729Z,21.80
2018-12-24T14:00:35.063Z,21.70
2018-12-24T14:03:31.380Z,21.80
2018-12-24T14:06:31.941Z,21.70
2018-12-24T14:09:28.247Z,21.70
2018-12-24T14:12:24.245Z,21.70
2018-12-24T14:15:20.308Z,21.70
2018-12-24T14:18:17.544Z,21.70
2018-12-24T14:21:14.136Z,21.70
2018-12-24T14:24:10.958Z,21.70
2018-12-24T14:27:07.697Z,21.70
2018-12-24T14:30:04.999Z,21.70
2018-12-24T14:33:02.311Z,21.70
2018-12-24T14:35:59.058Z,21.60
2018-12-24T14:38:55.587Z,21.60
2018-12-24T14:41:52.136Z,21.60
2018-12-24T14:44:48.347Z,21.50
2018-12-24T14:47:44.971Z,21.50
2018-12-24T14:50:47.188Z,21.50
2018-12-24T14:53:37.882Z,21.50
2018-12-24T14:56:37.963Z,21.50
2018-12-24T14:59:30.958Z,21.40
2018-12-24T15:02:30.457Z,21.40
2018-12-24T15:05:27.912Z,21.40
2018-12-24T15:08:24.371Z,21.30
2018-12-24T15:11:21.407Z,21.30
2018-12-24T15:14:18.253Z,21.30
2018-12-24T15:17:14.733Z,21.30
2018-12-24T15:20:11.444Z,21.30
2018-12-24T15:23:07.868Z,21.20
2018-12-24T15:26:03.905Z,21.20
2018-12-24T15:29:01.405Z,21.20
2018-12-24T15:32:02.964Z,21.20
2018-12-24T15:35:01.206Z,21.20
2018-12-24T15:37:53.832Z,21.10
2018-12-24T15:40:50.688Z,21.10
2018-12-24T15:43:50.310Z,21.10
2018-12-24T15:46:47.149Z,21.10
2018-12-24T15:49:44.591Z,21.10
2018-12-24T15:52:41.149Z,21.10
2018-12-24T15:55:37.794Z,21.10
2018-12-24T15:58:36.489Z,21.10
2018-12-24T16:01:33.225Z,21.10
2018-12-24T16:04:30.180Z,21.10
2018-12-24T16:07:26.406Z,21.10
2018-12-24T16:10:22.801Z,21.10
2018-12-24T16:13:19.280Z,21.10
2018-12-24T16:16:15.713Z,21.00
2018-12-24T16:19:12.254Z,21.00
2018-12-24T16:22:08.440Z,21.00
2018-12-24T16:25:05.232Z,21.00
2018-12-24T16:28:01.861Z,21.00
2018-12-24T16:30:57.997Z,20.90
2018-12-24T16:33:54.491Z,20.90
2018-12-24T16:36:50.141Z,20.90
2018-12-24T16:39:46.303Z,20.90
2018-12-24T16:42:45.527Z,20.90
2018-12-24T16:45:42.619Z,20.90
2018-12-24T16:48:38.973Z,20.90
2018-12-24T16:51:38.135Z,20.80
2018-12-24T16:54:34.186Z,20.80
2018-12-24T16:57:31.047Z,20.80
2018-12-24T17:00:27.279Z,20.70
2018-12-24T17:03:23.510Z,20.70
2018-12-24T17:06:19.535Z,20.70
2018-12-24T17:09:16.372Z,20.70
2018-12-24T17:12:12.925Z,20.70
2018-12-24T17:15:10.074Z,20.60
2018-12-24T17:18:06.612Z,20.60
2018-12-24T17:21:03.153Z,20.60
2018-12-24T17:23:59.775Z,20.60
2018-12-24T17:26:56.533Z,20.60
2018-12-24T17:29:53.078Z,20.60
2018-12-24T17:32:49.115Z,20.60
2018-12-24T17:35:45.932Z,20.60
2018-12-24T17:38:42.385Z,20.60
2018-12-24T17:41:38.604Z,20.60
2018-12-24T17:44:34.748Z,20.50
2018-12-24T17:47:30.962Z,20.50
2018-12-24T17:50:27.215Z,20.50
2018-12-24T17:53:30.321Z,20.40
2018-12-24T17:56:27.034Z,20.40
2018-12-24T17:59:19.423Z,20.40
2018-12-24T18:02:16.334Z,20.30
2018-12-24T18:05:12.667Z,20.30
2018-12-24T18:08:09.721Z,20.30
2018-12-24T18:11:06.040Z,20.20
2018-12-24T18:14:03.001Z,20.20
2018-12-24T18:16:59.337Z,20.20
2018-12-24T18:19:56.184Z,20.20
2018-12-24T18:22:53.131Z,20.10
2018-12-24T18:25:50.180Z,20.10
2018-12-24T18:28:49.268Z,20.10
2018-12-24T18:31:46.537Z,20.10
2018-12-24T18:34:43.181Z,20.10
2018-12-24T18:37:39.923Z,20.00
2018-12-24T18:40:36.447Z,20.00
2018-12-24T18:43:33.000Z,20.00
2018-12-24T18:46:29.024Z,19.90
2018-12-24T18:49:25.573Z,19.90
2018-12-24T18:52:22.306Z,19.90
2018-12-24T18:55:20.235Z,19.90
2018-12-24T18:58:15.288Z,19.90
2018-12-24T19:01:11.583Z,19.90
2018-12-24T19:04:07.851Z,19.90
2018-12-24T19:07:04.592Z,19.90
2018-12-24T19:10:01.848Z,19.90
2018-12-24T19:12:58.986Z,19.90
2018-12-24T19:15:55.433Z,19.90
2018-12-24T19:18:53.135Z,19.90
2018-12-24T19:21:49.228Z,19.90
2018-12-24T19:24:45.419Z,19.80
2018-12-24T19:27:41.890Z,19.80
2018-12-24T19:30:38.238Z,19.80
2018-12-24T19:33:34.519Z,19.80
2018-12-24T19:36:31.310Z,19.70
2018-12-24T19:39:30.275Z,19.70
2018-12-24T19:42:26.110Z,19.70
2018-12-24T19:45:21.856Z,19.70
2018-12-24T19:48:18.745Z,19.70
2018-12-24T19:51:14.797Z,19.60
2018-12-24T19:54:10.668Z,19.60
2018-12-24T19:57:12.101Z,19.60
2018-12-24T20:00:12.333Z,19.60
2018-12-24T20:03:05.044Z,19.50
2018-12-24T20:06:01.920Z,19.50
2018-12-24T20:08:58.129Z,19.50
2018-12-24T20:11:54.689Z,19.50
2018-12-24T20:14:51.120Z,19.50
2018-12-24T20:17:47.975Z,19.50
2018-12-24T20:20:44.116Z,19.50
2018-12-24T20:23:41.055Z,19.40
2018-12-24T20:26:38.005Z,19.40
2018-12-24T20:29:34.090Z,19.40
2018-12-24T20:32:30.568Z,19.40
2018-12-24T20:35:26.992Z,19.40
2018-12-24T20:38:23.320Z,19.40
2018-12-24T20:41:19.953Z,19.30
2018-12-24T20:44:16.624Z,19.30
2018-12-24T20:47:14.381Z,19.30
2018-12-24T20:50:11.544Z,19.30
2018-12-24T20:53:08.181Z,19.30
2018-12-24T20:56:04.284Z,19.30
2018-12-24T20:59:00.273Z,19.30
2018-12-24T21:01:56.262Z,19.20
2018-12-24T21:04:51.987Z,19.20
2018-12-24T21:07:48.102Z,19.10
2018-12-24T21:10:44.614Z,19.10
2018-12-24T21:13:40.668Z,19.10
2018-12-24T21:16:36.585Z,19.10
2018-12-24T21:19:32.731Z,19.10
2018-12-24T21:22:29.072Z,19.00
2018-12-24T21:25:25.397Z,19.00
2018-12-24T21:28:21.932Z,19.00
2018-12-24T21:31:18.071Z,19.00
2018-12-24T21:34:14.199Z,19.00
2018-12-24T21:37:13.919Z,19.00
2018-12-24T21:40:15.100Z,19.00
2018-12-24T21:43:11.274Z,19.00
2018-12-24T21:46:14.025Z,19.00
2018-12-24T21:49:07.571Z,18.90
2018-12-24T21:52:03.341Z,18.90
2018-12-24T21:54:58.922Z,18.90
2018-12-24T21:57:55.384Z,18.90
2018-12-24T22:00:51.432Z,18.90
2018-12-24T22:03:48.300Z,18.90
2018-12-24T22:06:44.525Z,18.90
2018-12-24T22:09:41.578Z,18.90
2018-12-24T22:12:40.467Z,18.90
2018-12-24T22:15:36.567Z,18.90
2018-12-24T22:18:42.048Z,18.90
2018-12-24T22:21:38.972Z,18.90
2018-12-24T22:24:35.224Z,18.90
2018-12-24T22:27:31.455Z,18.90
2018-12-24T22:30:27.892Z,18.90
2018-12-24T22:33:24.727Z,18.90
2018-12-24T22:36:20.974Z,18.90
2018-12-24T22:39:17.507Z,18.90
2018-12-24T22:42:14.149Z,18.90
2018-12-24T22:45:10.984Z,18.90
2018-12-24T22:48:06.800Z,18.90
2018-12-24T22:51:04.892Z,18.90
2018-12-24T22:54:01.433Z,18.90
2018-12-24T22:56:59.690Z,18.90
2018-12-24T22:59:55.935Z,18.80
2018-12-24T23:02:52.071Z,18.80
2018-12-24T23:05:51.376Z,18.80
2018-12-24T23:08:47.673Z,18.80
2018-12-24T23:11:44.789Z,18.80
2018-12-24T23:14:41.403Z,18.70
2018-12-24T23:17:37.544Z,18.70
2018-12-24T23:20:33.423Z,18.70
2018-12-24T23:23:30.520Z,18.70
2018-12-24T23:26:26.941Z,18.70
2018-12-24T23:29:23.919Z,18.60
2018-12-24T23:32:20.325Z,18.60
2018-12-24T23:35:16.867Z,18.60
2018-12-24T23:38:13.395Z,18.60
2018-12-24T23:41:09.109Z,18.60
2018-12-24T23:44:09.332Z,18.60
2018-12-24T23:47:07.024Z,18.60
2018-12-24T23:50:03.758Z,18.60
2018-12-24T23:53:03.338Z,18.60
2018-12-24T23:56:00.115Z,18.60
2018-12-24T23:58:56.779Z,18.60
